Air Quality Table

TIMESTAMP NO2 SO2 O3 PM10 PM2.5 CO TEMP HUM WS WD NO
2022-01-24 17:00 2.46 µg/m3 0.53 µg/m3 86.51 µg/m3 3.02 µg/m3 N/A 0.18 mg/m3 11.63 °C 64.93 % 5.92 m/s 235.27 Deg 0.35 µg/m3
2022-01-24 09:00 2.6 µg/m3 1.11 µg/m3 81.53 µg/m3 3.32 µg/m3 N/A 0.17 mg/m3 10.16 °C 63.6 % 3.76 m/s 232.46 Deg 0.06 µg/m3
2022-01-24 01:00 2.06 µg/m3 0.58 µg/m3 89.54 µg/m3 2.6 µg/m3 N/A 0.18 mg/m3 11.01 °C 61.92 % 3.81 m/s 218.99 Deg 0.03 µg/m3
2022-01-23 17:00 1.91 µg/m3 0.65 µg/m3 85.78 µg/m3 1.32 µg/m3 N/A 0.17 mg/m3 11.57 °C 60.19 % 4.33 m/s 265.94 Deg 0.28 µg/m3
2022-01-23 09:00 2.78 µg/m3 1.07 µg/m3 77.45 µg/m3 3.02 µg/m3 N/A 0.17 mg/m3 10.15 °C 65.62 % 4.83 m/s 108.57 Deg 0.1 µg/m3
2022-01-23 01:00 3.9 µg/m3 0.48 µg/m3 77.76 µg/m3 3.26 µg/m3 N/A 0.21 mg/m3 10.75 °C 77.99 % 2.61 m/s 123.68 Deg 0.04 µg/m3
2022-01-22 17:00 1.22 µg/m3 0.47 µg/m3 81.59 µg/m3 4.53 µg/m3 N/A 0.18 mg/m3 12.21 °C 72.79 % 3.85 m/s 234.46 Deg 0.86 µg/m3
2022-01-22 09:00 1.55 µg/m3 0.44 µg/m3 86.43 µg/m3 7.58 µg/m3 N/A 0.17 mg/m3 11.57 °C 70.96 % 7.49 m/s 282.78 Deg 0.05 µg/m3
2022-01-22 01:00 1.4 µg/m3 0.43 µg/m3 87.74 µg/m3 4.94 µg/m3 N/A 0.16 mg/m3 12.02 °C 72.49 % 6.31 m/s 263.73 Deg 0.03 µg/m3
2022-01-21 17:00 0.95 µg/m3 0.5 µg/m3 93.69 µg/m3 4.85 µg/m3 N/A 0.15 mg/m3 12.84 °C 68.19 % 6.94 m/s 216.27 Deg 0.1 µg/m3
2022-01-21 09:00 1.77 µg/m3 2.69 µg/m3 100.85 µg/m3 6.64 µg/m3 N/A 0.17 mg/m3 11.89 °C 67.97 % 5.01 m/s 231.52 Deg 0.04 µg/m3
2022-01-21 01:00 1.07 µg/m3 2.06 µg/m3 100.4 µg/m3 5.29 µg/m3 N/A 0.16 mg/m3 12.11 °C 71.5 % 5.13 m/s 228.24 Deg 0.03 µg/m3
2022-01-20 17:00 0.89 µg/m3 0.57 µg/m3 90.63 µg/m3 4.14 µg/m3 N/A 0.15 mg/m3 12.81 °C 72.84 % 2.5 m/s 205.08 Deg 0.07 µg/m3
2022-01-20 09:00 0.98 µg/m3 0.47 µg/m3 93.98 µg/m3 3.69 µg/m3 N/A 0.15 mg/m3 12.12 °C 75.29 % 1.44 m/s 235.11 Deg 0.03 µg/m3
2022-01-20 01:00 4.99 µg/m3 0.5 µg/m3 83.72 µg/m3 6.51 µg/m3 N/A 0.18 mg/m3 12.1 °C 80.11 % 2.5 m/s 163.01 Deg 0.05 µg/m3
2022-01-19 17:00 6.36 µg/m3 0.67 µg/m3 79.09 µg/m3 7.47 µg/m3 N/A 0.19 mg/m3 12.58 °C 77.37 % 2.57 m/s 139.37 Deg 0.66 µg/m3
2022-01-19 09:00 N/A 0.61 µg/m3 81.33 µg/m3 N/A N/A N/A 11.88 °C 72.75 % 1.66 m/s 90.03 Deg N/A
2022-01-19 01:00 N/A N/A N/A N/A N/A N/A 12.25 °C 67.05 % 1.05 m/s 237.2 Deg N/A
2022-01-18 17:00 N/A N/A N/A N/A N/A N/A 12.28 °C 70.69 % 2.69 m/s 356.44 Deg N/A
2022-01-13 01:00 N/A N/A N/A N/A N/A N/A 10.82 °C 86.46 % 3.94 m/s 136.88 Deg N/A
2022-01-12 17:00 N/A N/A N/A N/A N/A N/A 12.66 °C 75.49 % 2.58 m/s 219.07 Deg N/A
2022-01-12 01:00 N/A N/A N/A N/A N/A N/A 12.7 °C 71.15 % 7.26 m/s 334.98 Deg N/A
2022-01-11 17:00 N/A N/A N/A N/A 2.63 µg/m3 N/A 13.05 °C 71.03 % 9.68 m/s 326.97 Deg N/A
2022-01-10 09:00 N/A N/A N/A N/A 6.07 µg/m3 N/A 9.34 °C 87.8 % 9.44 m/s 291.75 Deg N/A
2022-01-10 01:00 1.08 µg/m3 0.35 µg/m3 88.9 µg/m3 N/A 5.06 µg/m3 0.17 mg/m3 11.73 °C 80.42 % 10.95 m/s 265.09 Deg 0.03 µg/m3
2022-01-09 17:00 0.93 µg/m3 0.37 µg/m3 83.32 µg/m3 N/A 4.81 µg/m3 0.17 mg/m3 13.14 °C 74.19 % 9.79 m/s 270.1 Deg 0.12 µg/m3
2022-01-09 09:00 0.78 µg/m3 0.37 µg/m3 83.62 µg/m3 N/A 4.62 µg/m3 0.17 mg/m3 11.98 °C 67.3 % 10.38 m/s 289.86 Deg 0.04 µg/m3
2022-01-09 01:00 1.46 µg/m3 0.35 µg/m3 81.6 µg/m3 N/A 4.42 µg/m3 0.19 mg/m3 12.03 °C 64.31 % 8.26 m/s 286.46 Deg 0.03 µg/m3
2022-01-08 17:00 1.21 µg/m3 0.32 µg/m3 80.41 µg/m3 N/A 3.59 µg/m3 0.18 mg/m3 12.53 °C 70.16 % 10.17 m/s 274.13 Deg 0.17 µg/m3
2022-01-08 09:00 1.43 µg/m3 0.34 µg/m3 79.98 µg/m3 N/A 4.55 µg/m3 0.18 mg/m3 12.81 °C 78.35 % 10.18 m/s 314.06 Deg 0.04 µg/m3
2022-01-08 01:00 2.36 µg/m3 0.35 µg/m3 76.5 µg/m3 N/A 3.72 µg/m3 0.18 mg/m3 12.89 °C 77.82 % 7.5 m/s 332 Deg 0.04 µg/m3
2022-01-07 17:00 2.01 µg/m3 0.37 µg/m3 78.8 µg/m3 N/A 3.66 µg/m3 0.17 mg/m3 12.33 °C 84.75 % 8.13 m/s 322.51 Deg 0.12 µg/m3
2022-01-07 09:00 1.78 µg/m3 0.37 µg/m3 74.45 µg/m3 N/A 4.41 µg/m3 0.17 mg/m3 12.47 °C 85.48 % 6.26 m/s 330.77 Deg 0.04 µg/m3
2022-01-07 01:00 3.1 µg/m3 0.33 µg/m3 79.12 µg/m3 N/A 4.77 µg/m3 0.18 mg/m3 12.74 °C 83.88 % 7.2 m/s 304 Deg 0.03 µg/m3
2022-01-06 17:00 3.08 µg/m3 0.41 µg/m3 77.57 µg/m3 N/A 5.42 µg/m3 0.18 mg/m3 14.56 °C 78.12 % 2.86 m/s 116.24 Deg 0.34 µg/m3
2022-01-06 09:00 2.78 µg/m3 0.41 µg/m3 76.82 µg/m3 N/A 4.77 µg/m3 0.17 mg/m3 13.59 °C 81.01 % 3.29 m/s 190.76 Deg 0.07 µg/m3
2022-01-06 01:00 2.45 µg/m3 0.66 µg/m3 83.97 µg/m3 N/A 5.57 µg/m3 0.17 mg/m3 14.58 °C 82.59 % 3.92 m/s 281.69 Deg 0.03 µg/m3
2022-01-05 17:00 0.61 µg/m3 0.57 µg/m3 83.58 µg/m3 N/A 5.59 µg/m3 0.16 mg/m3 15.95 °C 81.94 % 6.76 m/s 179.63 Deg 0.11 µg/m3
2022-01-05 09:00 0.54 µg/m3 0.4 µg/m3 86.24 µg/m3 N/A 5.85 µg/m3 0.16 mg/m3 15.27 °C 84.29 % 7.63 m/s 200.88 Deg 0.04 µg/m3
2022-01-05 01:00 0.94 µg/m3 0.87 µg/m3 95.04 µg/m3 N/A 6.58 µg/m3 0.2 mg/m3 14.57 °C 92.48 % 5.97 m/s 207.21 Deg 0.03 µg/m3
2022-01-04 17:00 0.98 µg/m3 0.95 µg/m3 80.28 µg/m3 N/A N/A 0.19 mg/m3 14.15 °C 87.62 % 5.21 m/s 217.51 Deg 0.09 µg/m3
2022-01-04 09:00 0.96 µg/m3 0.3 µg/m3 74.63 µg/m3 N/A N/A 0.14 mg/m3 13.07 °C 85.98 % 5.48 m/s 276.48 Deg 0.06 µg/m3
2022-01-04 01:00 0.76 µg/m3 0.3 µg/m3 75.1 µg/m3 N/A 4.03 µg/m3 0.14 mg/m3 13.17 °C 87.98 % 6.19 m/s 290.44 Deg 0.03 µg/m3
2022-01-03 17:00 0.82 µg/m3 0.32 µg/m3 71.65 µg/m3 N/A 4.35 µg/m3 0.15 mg/m3 13.31 °C 85.85 % 6.93 m/s 288.3 Deg 0.1 µg/m3
2022-01-03 09:00 1.57 µg/m3 0.33 µg/m3 69.19 µg/m3 N/A 3.8 µg/m3 0.15 mg/m3 13.12 °C 87.07 % 6.07 m/s 281.73 Deg 0.04 µg/m3
2022-01-03 01:00 2.98 µg/m3 0.41 µg/m3 70.28 µg/m3 N/A 4.64 µg/m3 0.18 mg/m3 13.57 °C 91.55 % 3.74 m/s 277.06 Deg 0.04 µg/m3
2022-01-02 17:00 1.44 µg/m3 0.38 µg/m3 71.65 µg/m3 N/A 4.52 µg/m3 0.17 mg/m3 14.71 °C 89.7 % 3.54 m/s 205.04 Deg 0.27 µg/m3
2022-01-02 09:00 1.35 µg/m3 0.32 µg/m3 64.33 µg/m3 N/A 4.38 µg/m3 0.16 mg/m3 13.47 °C 93.08 % 2.51 m/s 268.52 Deg 0.07 µg/m3
2022-01-02 01:00 3.59 µg/m3 0.83 µg/m3 60.7 µg/m3 N/A 6.61 µg/m3 0.17 mg/m3 14.02 °C 94.9 % 5.1 m/s 316.36 Deg 0.04 µg/m3
2022-01-01 17:00 2.95 µg/m3 0.35 µg/m3 69.18 µg/m3 N/A 5.1 µg/m3 0.17 mg/m3 14.26 °C 94.18 % 5.56 m/s 297.57 Deg 0.53 µg/m3
2022-01-01 09:00 4.48 µg/m3 0.38 µg/m3 62.29 µg/m3 N/A 4.95 µg/m3 0.21 mg/m3 14.03 °C 96.01 % 3.52 m/s 288.27 Deg 0.08 µg/m3
2022-01-01 01:00 2.44 µg/m3 0.41 µg/m3 82.95 µg/m3 N/A 4.19 µg/m3 0.21 mg/m3 14.13 °C 83.7 % 2.03 m/s 258.51 Deg 0.04 µg/m3
2021-12-31 17:00 2.95 µg/m3 0.61 µg/m3 78.66 µg/m3 N/A 4.59 µg/m3 0.2 mg/m3 15.21 °C 77.47 % 2.66 m/s 248.28 Deg 0.45 µg/m3
2021-12-31 09:00 4.01 µg/m3 1.17 µg/m3 72.77 µg/m3 N/A 4.76 µg/m3 0.19 mg/m3 14.11 °C 83.36 % 1.24 m/s 182.48 Deg 0.1 µg/m3
2021-12-31 01:00 5.89 µg/m3 0.45 µg/m3 68.31 µg/m3 N/A 4.93 µg/m3 0.19 mg/m3 14.74 °C 88.91 % 3.65 m/s 160.81 Deg 0.05 µg/m3
2021-12-30 17:00 1.84 µg/m3 0.32 µg/m3 70.5 µg/m3 N/A 6.71 µg/m3 0.17 mg/m3 15.3 °C 91.07 % 5.58 m/s 332.83 Deg 0.42 µg/m3
2021-12-30 09:00 2.6 µg/m3 0.31 µg/m3 71.18 µg/m3 N/A 6.86 µg/m3 0.16 mg/m3 15.02 °C 93.65 % 8.07 m/s 315.02 Deg 0.07 µg/m3
2021-12-30 01:00 2.44 µg/m3 0.32 µg/m3 77.79 µg/m3 N/A 7.67 µg/m3 0.17 mg/m3 15.31 °C 90.17 % 9.71 m/s 302.9 Deg 0.04 µg/m3
2021-12-29 17:00 2.79 µg/m3 0.38 µg/m3 78.33 µg/m3 N/A 8.82 µg/m3 0.17 mg/m3 15.54 °C 87.73 % 9.42 m/s 289.81 Deg 0.3 µg/m3
2021-12-29 09:00 2.2 µg/m3 0.34 µg/m3 75.56 µg/m3 N/A 7.62 µg/m3 0.17 mg/m3 15.01 °C 89.48 % 7.87 m/s 297.01 Deg 0.06 µg/m3
2021-12-29 01:00 1.86 µg/m3 0.33 µg/m3 81.02 µg/m3 N/A 7.07 µg/m3 0.18 mg/m3 15.01 °C 88.86 % 8.03 m/s 291.31 Deg 0.04 µg/m3
2021-12-28 17:00 1.66 µg/m3 0.4 µg/m3 77.82 µg/m3 N/A 7.19 µg/m3 0.18 mg/m3 15.58 °C 84.36 % 8.94 m/s 253.64 Deg 0.23 µg/m3
2021-12-28 09:00 1.85 µg/m3 1.06 µg/m3 70.64 µg/m3 N/A 7.1 µg/m3 0.18 mg/m3 15.58 °C 86.14 % 8.32 m/s 263.04 Deg 0.07 µg/m3
2021-12-28 01:00 2.3 µg/m3 0.49 µg/m3 79.19 µg/m3 N/A 7.2 µg/m3 0.21 mg/m3 15.14 °C 90.15 % 6.72 m/s 246.08 Deg 0.04 µg/m3
2021-12-27 17:00 2.23 µg/m3 0.48 µg/m3 73.97 µg/m3 N/A 5.86 µg/m3 0.19 mg/m3 15.7 °C 85.32 % 4.55 m/s 255.55 Deg 0.35 µg/m3
2021-12-27 09:00 2.53 µg/m3 0.78 µg/m3 70.54 µg/m3 N/A 5.28 µg/m3 0.17 mg/m3 15.36 °C 85.54 % 2.98 m/s 251.59 Deg 0.14 µg/m3
2021-12-27 01:00 0.31 µg/m3 0.5 µg/m3 74.88 µg/m3 N/A 4.86 µg/m3 0.17 mg/m3 15.59 °C 86.66 % 5.86 m/s 168.74 Deg 0.04 µg/m3
2021-12-26 17:00 4.06 µg/m3 0.51 µg/m3 77.65 µg/m3 N/A 6.7 µg/m3 0.2 mg/m3 17.23 °C 61.79 % 7.36 m/s 126.59 Deg 0.75 µg/m3
2021-12-26 09:00 1.68 µg/m3 0.49 µg/m3 72.95 µg/m3 N/A 7.02 µg/m3 0.16 mg/m3 16.11 °C 74.34 % 6.27 m/s 160.32 Deg 0.07 µg/m3
2021-12-26 01:00 0.98 µg/m3 0.79 µg/m3 77.44 µg/m3 N/A 7.46 µg/m3 0.17 mg/m3 15.97 °C 78.59 % 7.73 m/s 163.37 Deg 0.04 µg/m3
2021-12-25 17:00 3.38 µg/m3 1.81 µg/m3 86.22 µg/m3 N/A 9.1 µg/m3 0.22 mg/m3 16.54 °C 81.01 % 7.43 m/s 140.27 Deg 0.3 µg/m3
2021-12-25 09:00 3.03 µg/m3 0.42 µg/m3 95.69 µg/m3 N/A 7.25 µg/m3 0.22 mg/m3 15.09 °C 87.76 % 6.09 m/s 155.93 Deg 0.07 µg/m3

It is to be noted that the data is provisional and subject to quality assurance procedures. For validated data kindly refer your request to contact.air@era.org.mt